KSFQ

Details ICAO KSFQ
Name SUFFOLK EXECUTIVE
Region United States
Timezone America/New_York (UTC-5.0)
Plans Departing 3
Arriving 1
Stats Elevation 72 ft / 22 m (AMSL)
Location 36.682156° -76.600773°
Runways 2
Magnetic Variation 10.639° W
Sunrise 2017-12-12 12:11:02 UTC / 2017-12-12 07:11:02 Local
Sunset 2017-12-12 21:52:18 UTC / 2017-12-12 16:52:18 Local
Advertisement - Login to hide

Runways

ID Width Length Bearing (true) Bearing (mag) Surface Threshold Offset Overrun Length
04 98 ft / 30 m 5,005 ft / 1,526 m 30.10° 40.74° Asphalt 213 ft / 65 m 0 ft / 0 m
07 98 ft / 30 m 4,467 ft / 1,362 m 63.60° 74.24° Asphalt 180 ft / 55 m 364 ft / 111 m
22 98 ft / 30 m 5,005 ft / 1,526 m 210.11° 220.75° Asphalt 213 ft / 65 m 0 ft / 0 m
25 98 ft / 30 m 4,467 ft / 1,362 m 243.61° 254.25° Asphalt 0 ft / 0 m 0 ft / 0 m

Map

Weather


0- 5 10 15 20 25 30 35+ Temperature / ° C

Clouds and Precipitation
Forecast for 2017-12-13 06:00 UTC. Updated 20 minutes ago

Ground ~20,000 ft ~40,000 ft Winds

METAR

KSFQ 130310Z AUTO 30011G14KT 10SM -SN SCT029 BKN042 OVC050 02/M03 A2970 RMK AO2 T00211030

TAF

Not found

Frequencies

Recorded 119.37 MHz AWOS 3
Approach 127.90 MHz NORFOLK APP/DEP
Unicom 122.70 MHz CTAF/UNICOM
Warning: Do not use this data for real-world aviation or navigation. No guarantee of current accuracy is given.